Flight Track Log - Related Links

Times and Time Zones

All times are in EST time to prevent confusion due to time zone crossing. See the FLG4262 flight status page for this flight to view local times or setup timezone preferences in your user account.

Time Position Orientation Groundspeed Altitude Reporting Facility
EST Latitude Longitude Course Direction KTS MPH feet Rate Location/Type
Sun 03:58:44 PM 42.2050 -83.3528 172° South 139 160 1,400  Level Cleveland Center
Sun 04:00:02 PM 42.1472 -83.3419 172° South 172 198 4,300 2,065 Climbing Cleveland Center
Sun 04:00:17 PM 42.1433 -83.3406 165° South 164 189 4,600 1,592 Climbing Cleveland Center
Sun 04:00:51 PM 42.1025 -83.3244 164° South 238 274 5,600 2,032 Climbing Cleveland Center
Sun 04:01:19 PM 42.0761 -83.3047 151° Southeast 237 273 6,700 2,754 Climbing Cleveland Center
Sun 04:01:52 PM 42.0711 -83.2411 96° East 324 373 8,400 2,852 Climbing Cleveland Center
Sun 04:02:20 PM 42.0872 -83.1936 65° Northeast 312 359 9,600 1,881 Climbing Cleveland Center
Sun 04:02:59 PM 42.1186 -83.1156 62° Northeast 356 410 10,500 1,452 Climbing Cleveland Center
Sun 04:03:22 PM 42.1353 -83.0708 63° Northeast 355 409 11,100 1,694 Climbing Cleveland Center
Sun 04:04:24 PM 42.1836 -82.9439 63° Northeast 381 438 12,900 1,171 Climbing Cleveland Center
Sun 04:05:25 PM 42.2356 -82.8081 63° Northeast 406 467 13,500 984 Climbing Cleveland Center
Sun 04:06:26 PM 42.2903 -82.6628 63° Northeast 432 497 14,900 1,366 Climbing Cleveland Center
Sun 04:07:28 PM 42.3456 -82.5156 63° Northeast 439 505 16,300 1,659 Climbing Cleveland Center
Sun 04:08:29 PM 42.3647 -82.3539 81° East 441 507 18,300 1,659 Climbing Cleveland Center
Sun 04:09:31 PM 42.3586 -82.1919 93° East 435 501 19,700 1,415 Climbing Cleveland Center
Sun 04:10:32 PM 42.3511 -82.0158 93° East 437 503 21,200 1,366 Climbing Cleveland Center
Sun 04:11:34 PM 42.3442 -81.8500 93° East 437 503 22,500 1,355 Climbing Cleveland Center
Sun 04:12:36 PM 42.3350 -81.6556 94° East 440 506 24,000 1,317 Climbing Cleveland Center
Sun 04:13:37 PM 42.3269 -81.4875 94° East 443 510 25,200 1,171 Climbing Cleveland Center
Sun 04:14:39 PM 42.3197 -81.3175 93° East 447 514 26,400 1,122 Climbing Cleveland Center
Sun 04:15:40 PM 42.3111 -81.1517 94° East 442 509 27,500 780 Climbing Cleveland Center
Sun 04:16:42 PM 42.3014 -80.9825 94° East 446 513 28,000 488 Climbing Cleveland Center
Sun 04:17:43 PM 42.2928 -80.8047 94° East 463 533 28,500 488 Climbing Cleveland Center
Sun 04:18:45 PM 42.2822 -80.6256 94° East 471 542 29,000 244 Climbing Cleveland Center
Sun 04:19:46 PM 42.2731 -80.4403 94° East 485 558 29,000  Level Cleveland Center
Sun 04:20:48 PM 42.2622 -80.2511 94° East 499 574 29,000  Level Cleveland Center
Sun 04:21:49 PM 42.2508 -80.0578 94° East 509 586 29,000  Level Cleveland Center
Sun 04:22:51 PM 42.2369 -79.8417 95° East 517 595 29,000  Level Cleveland Center
Sun 04:23:52 PM 42.2244 -79.6447 95° East 525 604 29,000  Level Cleveland Center
Sun 04:24:54 PM 42.2117 -79.4494 95° East 526 605 29,000 -49 Level Cleveland Center
Sun 04:25:55 PM 42.1978 -79.2508 95° East 531 611 28,900 -488 Descending Cleveland Center
Sun 04:26:57 PM 42.1894 -79.0494 93° East 538 619 28,000 -439 Descending Cleveland Center
Sun 04:27:58 PM 42.1942 -78.8456 88° East 547 629 28,000 -49 Level Cleveland Center
Sun 04:29:00 PM 42.1994 -78.6483 88° East 533 613 27,900 -780 Descending Cleveland Center
Sun 04:30:01 PM 42.2006 -78.4186 90° East 520 598 26,400 -1,317 Descending Cleveland Center
Sun 04:31:03 PM 42.2031 -78.2331 89° East 507 583 25,200 -732 Descending Cleveland Center
Sun 04:32:04 PM 42.2042 -78.0547 89° East 494 568 24,900 -683 Descending Cleveland Center
Sun 04:33:06 PM 42.2072 -77.8783 89° East 481 554 23,800 -1,463 Descending Cleveland Center
Sun 04:34:07 PM 42.2083 -77.7083 89° East 467 537 21,900 -1,854 Descending Cleveland Center
Sun 04:35:09 PM 42.2089 -77.5456 90° East 446 513 20,000 -2,098 Descending Cleveland Center
Sun 04:36:10 PM 42.2106 -77.3589 89° East 425 489 17,600 -1,512 Descending Cleveland Center
Sun 04:37:12 PM 42.2119 -77.2097 89° East 410 472 16,900 -372 Descending Cleveland Center
Sun 04:38:03 PM 42.2131 -77.0983 89° East 401 461 16,900 -811 Level New York Center
Sun 04:39:03 PM 42.2122 -76.9528 90° East 388 447 15,400 -1,900 Descending New York Center
Sun 04:40:03 PM 42.2136 -76.8072 89° East 388 447 13,100 -2,000 Descending New York Center
Sun 04:41:03 PM 42.2097 -76.6753 92° East 374 430 11,400 -1,850 Descending New York Center
Sun 04:42:03 PM 42.2425 -76.5606 69° East 335 386 9,400 -2,200 Descending New York Center
Sun 04:43:03 PM 42.2850 -76.4522 62° Northeast 323 372 7,000 -1,750 Descending New York Center
Sun 04:44:03 PM 42.3272 -76.3550 60° Northeast 311 358 5,900 -1,000 Descending New York Center
Sun 04:45:03 PM 42.3628 -76.2597 63° Northeast 296 341 5,000 -600 Descending New York Center
Sun 04:46:03 PM 42.3956 -76.1783 61° Northeast 265 305 4,700 -550 Descending New York Center
Sun 04:47:03 PM 42.3961 -76.1222 89° East 246 283 3,900 -700 Descending New York Center
Sun 04:48:03 PM 42.3469 -76.1069 167° South 130 150 3,300 -300 Descending New York Center
Sun 04:49:03 PM 42.3108 -76.0731 145° Southeast 130 150 3,300  Level New York Center
Sun 04:50:03 PM 42.2828 -76.0483 147° Southeast 136 157 3,300 -350 Level New York Center
Sun 04:51:03 PM 42.2547 -76.0239 147° Southeast 131 151 2,600 -550 Descending New York Center
Sun 04:52:03 PM 42.2206 -75.9958 149° Southeast 131 151 2,200 3,200 Descending New York Center
Sun 04:53:03 PM 42.1906 -75.9711 149° Southeast 131 151 9,000 6,800 Climbing New York Center
Sun 04:55:00 PM 42.2000 -75.9667 North  Level FlightAware Approximate
Sun 05:02:00 PM 42.2084 -75.9796 North  Level Estimated

Login

Don't have an account? Register now (free) for customized features, flight alerts, and more!